createdAt,value
2019-05-02T00:00:53.263Z,21.28
2019-05-02T00:01:53.258Z,21.30
2019-05-02T00:02:53.269Z,21.24
2019-05-02T00:03:53.229Z,21.27
2019-05-02T00:04:55.765Z,21.21
2019-05-02T00:05:53.208Z,21.30
2019-05-02T00:06:53.197Z,21.22
2019-05-02T00:07:53.791Z,21.24
2019-05-02T00:08:53.189Z,21.28
2019-05-02T00:09:53.163Z,21.28
2019-05-02T00:10:53.155Z,21.27
2019-05-02T00:11:58.774Z,21.26
2019-05-02T00:12:54.129Z,21.22
2019-05-02T00:13:53.147Z,21.21
2019-05-02T00:14:56.595Z,21.11
2019-05-02T00:15:54.095Z,21.09
2019-05-02T00:16:53.085Z,21.09
2019-05-02T00:17:56.785Z,21.18
2019-05-02T00:18:54.087Z,21.16
2019-05-02T00:19:53.059Z,21.15
2019-05-02T00:20:57.063Z,21.12
2019-05-02T00:21:54.031Z,21.12
2019-05-02T00:22:53.488Z,21.18
2019-05-02T00:23:53.024Z,21.13
2019-05-02T00:24:53.003Z,21.11
2019-05-02T00:25:54.387Z,21.13
2019-05-02T00:26:56.112Z,21.13
2019-05-02T00:27:53.961Z,21.12
2019-05-02T00:28:52.970Z,21.15
2019-05-02T00:29:53.767Z,21.12
2019-05-02T00:30:53.929Z,21.11
2019-05-02T00:31:52.936Z,21.12
2019-05-02T00:32:53.123Z,21.12
2019-05-02T00:33:52.914Z,21.12
2019-05-02T00:34:52.888Z,21.01
2019-05-02T00:35:52.873Z,21.00
2019-05-02T00:36:52.862Z,21.00
2019-05-02T00:37:52.860Z,21.09
2019-05-02T00:38:52.857Z,20.98
2019-05-02T00:39:52.829Z,21.00
2019-05-02T00:40:57.253Z,21.06
2019-05-02T00:41:53.809Z,20.98
2019-05-02T00:42:53.352Z,21.06
2019-05-02T00:43:53.819Z,21.05
2019-05-02T00:44:52.773Z,21.06
2019-05-02T00:45:55.018Z,21.01
2019-05-02T00:46:53.756Z,21.01
2019-05-02T00:47:52.741Z,21.05
2019-05-02T00:48:54.051Z,20.97
2019-05-02T00:49:53.726Z,21.01
2019-05-02T00:50:52.709Z,21.01
2019-05-02T00:51:56.608Z,20.98
2019-05-02T00:52:53.687Z,20.94
2019-05-02T00:53:52.673Z,20.91
2019-05-02T00:54:55.019Z,20.96
2019-05-02T00:55:53.658Z,20.98
2019-05-02T00:56:52.644Z,20.97
2019-05-02T00:57:55.635Z,20.87
2019-05-02T00:58:52.616Z,20.93
2019-05-02T00:59:52.624Z,20.83
2019-05-02T01:00:53.163Z,20.85
2019-05-02T01:01:52.632Z,20.97
2019-05-02T01:02:52.573Z,20.83
2019-05-02T01:03:53.821Z,20.97
2019-05-02T01:04:52.566Z,20.90
2019-05-02T01:05:52.546Z,20.90
2019-05-02T01:06:52.531Z,20.94
2019-05-02T01:07:55.915Z,20.88
2019-05-02T01:08:53.506Z,20.87
2019-05-02T01:09:52.512Z,20.85
2019-05-02T01:10:56.829Z,20.88
2019-05-02T01:11:53.478Z,20.88
2019-05-02T01:12:52.466Z,20.87
2019-05-02T01:13:55.868Z,20.87
2019-05-02T01:14:53.454Z,20.87
2019-05-02T01:15:52.427Z,20.90
2019-05-02T01:16:54.468Z,20.82
2019-05-02T01:17:52.406Z,20.82
2019-05-02T01:18:52.394Z,20.78
2019-05-02T01:19:52.718Z,20.79
2019-05-02T01:20:52.372Z,20.78
2019-05-02T01:21:52.360Z,20.78
2019-05-02T01:22:53.621Z,20.81
2019-05-02T01:23:52.340Z,20.78
2019-05-02T01:24:52.343Z,20.85
2019-05-02T01:25:52.791Z,20.87
2019-05-02T01:26:52.305Z,20.83
2019-05-02T01:27:52.295Z,20.81
2019-05-02T01:28:54.195Z,20.79
2019-05-02T01:29:52.291Z,20.82
2019-05-02T01:30:52.262Z,20.76
2019-05-02T01:31:54.729Z,20.75
2019-05-02T01:32:52.244Z,20.78
2019-05-02T01:33:52.226Z,20.72
2019-05-02T01:34:54.326Z,20.76
2019-05-02T01:35:52.206Z,20.76
2019-05-02T01:36:52.196Z,20.69
2019-05-02T01:37:54.935Z,20.78
2019-05-02T01:38:52.179Z,20.72
2019-05-02T01:39:52.188Z,20.79
2019-05-02T01:40:53.169Z,20.73
2019-05-02T01:41:52.140Z,20.63
2019-05-02T01:42:52.133Z,20.73
2019-05-02T01:43:55.005Z,20.71
2019-05-02T01:44:53.128Z,20.64
2019-05-02T01:45:52.093Z,20.61
2019-05-02T01:46:53.988Z,20.66
2019-05-02T01:47:53.069Z,20.69
2019-05-02T01:48:52.060Z,20.71
2019-05-02T01:49:57.060Z,20.64
2019-05-02T01:50:53.057Z,20.71
2019-05-02T01:51:52.026Z,20.64
2019-05-02T01:52:53.771Z,20.64
2019-05-02T01:53:53.001Z,20.68
2019-05-02T01:54:51.992Z,20.71
2019-05-02T01:55:56.885Z,20.63
2019-05-02T01:56:52.973Z,20.66
2019-05-02T01:57:51.959Z,20.60
2019-05-02T01:58:53.023Z,20.58
2019-05-02T01:59:52.935Z,20.64
2019-05-02T02:00:51.945Z,20.58
2019-05-02T02:01:53.170Z,20.66
2019-05-02T02:02:52.905Z,20.63
2019-05-02T02:03:51.892Z,20.63
2019-05-02T02:04:52.126Z,20.64
2019-05-02T02:05:51.886Z,20.66
2019-05-02T02:06:51.859Z,20.66
2019-05-02T02:07:55.471Z,20.61
2019-05-02T02:08:52.836Z,20.61
2019-05-02T02:09:51.825Z,20.60
2019-05-02T02:10:56.613Z,20.63
2019-05-02T02:11:52.804Z,20.54
2019-05-02T02:13:03.349Z,20.63
2019-05-02T02:13:52.793Z,20.63
2019-05-02T02:14:53.346Z,20.58
2019-05-02T02:15:51.759Z,20.57
2019-05-02T02:16:51.762Z,20.58
2019-05-02T02:17:52.663Z,20.57
2019-05-02T02:18:51.725Z,20.58
2019-05-02T02:19:51.719Z,20.54
2019-05-02T02:20:51.702Z,20.56
2019-05-02T02:21:51.711Z,20.53
2019-05-02T02:22:51.687Z,20.51
2019-05-02T02:23:51.673Z,20.56
2019-05-02T02:24:55.940Z,20.46
2019-05-02T02:25:52.657Z,20.44
2019-05-02T02:26:51.651Z,20.42
2019-05-02T02:27:54.945Z,20.61
2019-05-02T02:28:52.611Z,20.50
2019-05-02T02:29:51.602Z,20.46
2019-05-02T02:30:57.937Z,20.44
2019-05-02T02:31:52.605Z,20.46
2019-05-02T02:32:51.571Z,20.44
2019-05-02T02:33:51.556Z,20.44
2019-05-02T02:34:51.559Z,20.42
2019-05-02T02:35:52.174Z,20.42
2019-05-02T02:36:51.539Z,20.48
2019-05-02T02:37:52.902Z,20.46
2019-05-02T02:38:51.515Z,20.46
2019-05-02T02:39:54.181Z,20.44
2019-05-02T02:40:51.489Z,20.44
2019-05-02T02:41:52.481Z,20.40
2019-05-02T02:42:51.460Z,20.42
2019-05-02T02:43:54.726Z,20.44
2019-05-02T02:44:52.437Z,20.41
2019-05-02T02:45:57.231Z,20.50
2019-05-02T02:46:52.427Z,20.44
2019-05-02T02:47:53.023Z,20.46
2019-05-02T02:48:52.392Z,20.41
2019-05-02T02:49:55.975Z,20.48
2019-05-02T02:50:52.380Z,20.44
2019-05-02T02:51:51.371Z,20.40
2019-05-02T02:52:51.343Z,20.35
2019-05-02T02:54:03.194Z,20.48
2019-05-02T02:54:52.328Z,20.42
2019-05-02T02:56:00.797Z,20.42
2019-05-02T02:56:52.329Z,20.38
2019-05-02T02:57:51.293Z,20.42
2019-05-02T02:58:51.277Z,20.35
2019-05-02T02:59:51.268Z,20.37
2019-05-02T03:00:51.254Z,20.35
2019-05-02T03:01:51.267Z,20.38
2019-05-02T03:02:51.255Z,20.41
2019-05-02T03:03:51.223Z,20.37
2019-05-02T03:04:51.209Z,20.33
2019-05-02T03:05:51.198Z,20.41
2019-05-02T03:06:51.204Z,20.35
2019-05-02T03:07:51.184Z,20.34
2019-05-02T03:08:51.168Z,20.40
2019-05-02T03:09:51.163Z,20.38
2019-05-02T03:10:51.146Z,20.30
2019-05-02T03:11:56.371Z,20.38
2019-05-02T03:12:52.127Z,20.33
2019-05-02T03:13:53.379Z,20.38
2019-05-02T03:14:51.105Z,20.38
2019-05-02T03:15:51.084Z,20.40
2019-05-02T03:16:51.094Z,20.33
2019-05-02T03:17:51.063Z,20.30
2019-05-02T03:18:51.056Z,20.37
2019-05-02T03:19:54.337Z,20.31
2019-05-02T03:20:52.026Z,20.37
2019-05-02T03:21:54.510Z,20.33
2019-05-02T03:22:52.005Z,20.27
2019-05-02T03:24:01.231Z,20.31
2019-05-02T03:24:51.989Z,20.31
2019-05-02T03:25:51.649Z,20.27
2019-05-02T03:26:55.174Z,20.30
2019-05-02T03:27:50.967Z,20.31
2019-05-02T03:28:57.173Z,20.26
2019-05-02T03:29:51.925Z,20.26
2019-05-02T03:30:50.919Z,20.19
2019-05-02T03:32:11.545Z,20.27
2019-05-02T03:33:05.960Z,20.30
2019-05-02T03:33:55.771Z,20.25
2019-05-02T03:34:53.872Z,20.23
2019-05-02T03:35:50.864Z,20.25
2019-05-02T03:36:50.859Z,20.22
2019-05-02T03:37:52.958Z,20.26
2019-05-02T03:38:50.826Z,20.20
2019-05-02T03:39:57.144Z,20.15
2019-05-02T03:40:51.803Z,20.20
2019-05-02T03:41:55.738Z,20.22
2019-05-02T03:42:51.800Z,20.23
2019-05-02T03:43:50.795Z,20.23
2019-05-02T03:44:56.352Z,20.16
2019-05-02T03:45:51.744Z,20.31
2019-05-02T03:46:54.300Z,20.13
2019-05-02T03:47:51.741Z,20.19
2019-05-02T03:48:50.723Z,20.17
2019-05-02T03:49:52.387Z,20.19
2019-05-02T03:50:50.689Z,20.10
2019-05-02T03:51:55.909Z,20.22
2019-05-02T03:52:51.681Z,20.25
2019-05-02T03:53:50.705Z,20.23
2019-05-02T03:54:52.434Z,20.22
2019-05-02T03:55:50.644Z,20.08
2019-05-02T03:56:51.931Z,20.16
2019-05-02T03:57:50.631Z,20.25
2019-05-02T03:58:56.362Z,20.19
2019-05-02T03:59:51.589Z,20.20
2019-05-02T04:01:00.787Z,20.23
2019-05-02T04:01:51.562Z,20.22
2019-05-02T04:02:59.050Z,20.19
2019-05-02T04:03:51.541Z,20.17
2019-05-02T04:04:54.148Z,20.19
2019-05-02T04:05:51.515Z,20.17
2019-05-02T04:06:55.011Z,20.16
2019-05-02T04:07:51.526Z,20.17
2019-05-02T04:08:59.308Z,20.17
2019-05-02T04:09:51.474Z,20.17
2019-05-02T04:10:52.955Z,20.26
2019-05-02T04:11:51.450Z,20.17
2019-05-02T04:12:53.011Z,20.23
2019-05-02T04:13:51.436Z,20.15
2019-05-02T04:14:55.637Z,20.22
2019-05-02T04:15:51.431Z,20.22
2019-05-02T04:16:55.129Z,20.19
2019-05-02T04:17:51.406Z,20.19
2019-05-02T04:18:55.822Z,20.12
2019-05-02T04:19:51.359Z,20.20
2019-05-02T04:20:52.006Z,20.19
2019-05-02T04:21:54.576Z,20.17
2019-05-02T04:22:50.929Z,20.15
2019-05-02T04:23:50.314Z,20.26
2019-05-02T04:24:54.636Z,20.17
2019-05-02T04:25:51.294Z,20.19
2019-05-02T04:26:53.904Z,20.20
2019-05-02T04:27:51.302Z,20.17
2019-05-02T04:28:51.640Z,20.16
2019-05-02T04:29:50.251Z,20.17
2019-05-02T04:30:51.131Z,20.13
2019-05-02T04:31:50.223Z,20.15
2019-05-02T04:32:55.858Z,20.19
2019-05-02T04:33:51.214Z,20.10
2019-05-02T04:34:55.318Z,20.15
2019-05-02T04:35:51.172Z,20.19
2019-05-02T04:36:59.830Z,20.10
2019-05-02T04:37:51.152Z,20.16
2019-05-02T04:38:52.367Z,20.17
2019-05-02T04:39:53.786Z,20.19
2019-05-02T04:40:51.116Z,20.22
2019-05-02T04:41:50.110Z,20.15
2019-05-02T04:42:53.500Z,20.20
2019-05-02T04:43:57.338Z,20.15
2019-05-02T04:45:12.175Z,20.22
2019-05-02T04:45:56.165Z,20.15
2019-05-02T04:46:51.048Z,20.22
2019-05-02T04:47:58.590Z,20.22
2019-05-02T04:48:52.888Z,20.17
2019-05-02T04:49:51.949Z,20.13
2019-05-02T04:50:51.753Z,20.13
2019-05-02T04:52:00.161Z,20.17
2019-05-02T04:52:53.886Z,20.12
2019-05-02T04:53:50.178Z,20.12
2019-05-02T04:54:49.975Z,20.10
2019-05-02T04:56:01.542Z,20.15
2019-05-02T04:56:55.167Z,20.08
2019-05-02T04:57:50.912Z,20.13
2019-05-02T04:58:49.927Z,20.13
2019-05-02T04:59:50.712Z,20.16
2019-05-02T05:00:58.084Z,20.13
2019-05-02T05:01:57.231Z,20.15
2019-05-02T05:02:53.261Z,20.10
2019-05-02T05:03:58.209Z,20.12
2019-05-02T05:04:50.852Z,20.07
2019-05-02T05:05:49.841Z,20.12
2019-05-02T05:06:56.197Z,20.08
2019-05-02T05:07:50.816Z,20.15
2019-05-02T05:08:49.835Z,20.08
2019-05-02T05:09:56.932Z,20.16
2019-05-02T05:10:50.779Z,20.16
2019-05-02T05:11:53.807Z,20.12
2019-05-02T05:12:50.750Z,20.15
2019-05-02T05:13:52.401Z,20.17
2019-05-02T05:14:50.728Z,20.13
2019-05-02T05:15:51.980Z,20.12
2019-05-02T05:16:51.703Z,20.13
2019-05-02T05:17:50.707Z,20.15
2019-05-02T05:18:53.126Z,20.10
2019-05-02T05:19:49.712Z,20.07
2019-05-02T05:20:53.058Z,20.07
2019-05-02T05:21:49.650Z,20.12
2019-05-02T05:22:49.643Z,20.10
2019-05-02T05:23:51.724Z,20.10
2019-05-02T05:24:50.628Z,20.05
2019-05-02T05:25:50.760Z,20.07
2019-05-02T05:26:50.590Z,20.01
2019-05-02T05:27:52.544Z,20.05
2019-05-02T05:28:50.582Z,20.02
2019-05-02T05:29:53.722Z,19.98
2019-05-02T05:30:52.252Z,20.01
2019-05-02T05:31:49.545Z,19.98
2019-05-02T05:32:49.523Z,19.98
2019-05-02T05:33:49.513Z,19.97
2019-05-02T05:34:49.516Z,20.08
2019-05-02T05:35:52.510Z,20.08
2019-05-02T05:36:49.480Z,19.98
2019-05-02T05:37:53.069Z,19.98
2019-05-02T05:38:49.456Z,19.98
2019-05-02T05:39:52.596Z,20.00
2019-05-02T05:40:50.240Z,20.00
2019-05-02T05:41:52.261Z,19.95
2019-05-02T05:42:49.409Z,19.97
2019-05-02T05:43:53.506Z,19.98
2019-05-02T05:44:49.406Z,19.98
2019-05-02T05:45:56.197Z,19.98
2019-05-02T05:46:50.361Z,19.94
2019-05-02T05:47:52.400Z,19.92
2019-05-02T05:48:50.340Z,19.92
2019-05-02T05:49:52.297Z,19.90
2019-05-02T05:50:50.318Z,19.94
2019-05-02T05:51:53.948Z,19.98
2019-05-02T05:52:51.735Z,19.86
2019-05-02T05:53:52.385Z,19.82
2019-05-02T05:54:50.291Z,19.83
2019-05-02T05:55:53.559Z,19.76
2019-05-02T05:56:50.299Z,19.79
2019-05-02T05:57:50.135Z,19.75
2019-05-02T05:58:52.499Z,19.79
2019-05-02T05:59:49.234Z,19.79
2019-05-02T06:00:53.905Z,19.78
2019-05-02T06:01:51.646Z,19.82
2019-05-02T06:02:53.963Z,19.83
2019-05-02T06:03:50.167Z,19.79
2019-05-02T06:04:50.203Z,19.83
2019-05-02T06:05:49.148Z,19.79
2019-05-02T06:06:49.142Z,19.85
2019-05-02T06:07:49.128Z,19.80
2019-05-02T06:08:53.954Z,19.83
2019-05-02T06:09:50.116Z,19.83
2019-05-02T06:10:49.093Z,19.80
2019-05-02T06:11:50.792Z,19.79
2019-05-02T06:12:49.070Z,19.79
2019-05-02T06:13:50.755Z,19.75
2019-05-02T06:14:49.079Z,19.79
2019-05-02T06:16:01.578Z,19.78
2019-05-02T06:16:51.678Z,19.80
2019-05-02T06:17:49.013Z,19.80
2019-05-02T06:18:48.998Z,19.80
2019-05-02T06:19:53.562Z,19.78
2019-05-02T06:20:49.981Z,19.78
2019-05-02T06:21:48.963Z,19.80
2019-05-02T06:22:48.951Z,19.87
2019-05-02T06:23:48.940Z,19.79
2019-05-02T06:24:50.723Z,19.83
2019-05-02T06:25:48.919Z,19.82
2019-05-02T06:26:49.971Z,19.80
2019-05-02T06:27:48.894Z,19.82
2019-05-02T06:28:48.883Z,19.83
2019-05-02T06:29:51.270Z,19.82
2019-05-02T06:30:49.883Z,19.78
2019-05-02T06:31:48.854Z,19.79
2019-05-02T06:32:50.132Z,19.75
2019-05-02T06:33:49.825Z,19.80
2019-05-02T06:34:48.814Z,19.79
2019-05-02T06:35:51.889Z,19.79
2019-05-02T06:36:49.790Z,19.72
2019-05-02T06:37:50.139Z,19.80
2019-05-02T06:38:52.388Z,19.82
2019-05-02T06:39:49.769Z,19.78
2019-05-02T06:40:48.761Z,19.82
2019-05-02T06:41:52.091Z,19.79
2019-05-02T06:42:49.773Z,19.72
2019-05-02T06:43:48.712Z,19.79
2019-05-02T06:44:48.706Z,19.86
2019-05-02T06:45:48.716Z,19.90
2019-05-02T06:46:48.677Z,19.76
2019-05-02T06:47:48.669Z,19.86
2019-05-02T06:48:52.373Z,19.79
2019-05-02T06:49:48.642Z,19.87
2019-05-02T06:50:48.667Z,19.92
2019-05-02T06:51:51.070Z,19.90
2019-05-02T06:52:49.641Z,19.89
2019-05-02T06:53:48.969Z,19.90
2019-05-02T06:54:48.587Z,19.87
2019-05-02T06:55:48.589Z,19.92
2019-05-02T06:56:49.216Z,19.79
2019-05-02T06:57:51.477Z,19.89
2019-05-02T06:58:48.583Z,19.87
2019-05-02T06:59:49.990Z,19.89
2019-05-02T07:00:57.458Z,19.79
2019-05-02T07:01:52.375Z,19.86
2019-05-02T07:02:49.501Z,19.90
2019-05-02T07:03:48.484Z,19.82
2019-05-02T07:04:48.476Z,19.89
2019-05-02T07:05:49.169Z,19.82
2019-05-02T07:06:58.129Z,19.80
2019-05-02T07:07:49.436Z,19.82
2019-05-02T07:08:48.454Z,19.94
2019-05-02T07:09:48.444Z,19.86
2019-05-02T07:10:48.419Z,19.94
2019-05-02T07:11:56.905Z,19.80
2019-05-02T07:12:51.214Z,19.79
2019-05-02T07:13:49.371Z,19.78
2019-05-02T07:14:48.367Z,19.90
2019-05-02T07:15:48.742Z,19.87
2019-05-02T07:16:49.701Z,19.79
2019-05-02T07:17:49.324Z,19.89
2019-05-02T07:18:49.695Z,19.92
2019-05-02T07:19:48.302Z,19.86
2019-05-02T07:20:48.383Z,19.89
2019-05-02T07:21:48.283Z,19.89
2019-05-02T07:22:48.272Z,19.87
2019-05-02T07:23:48.742Z,19.89
2019-05-02T07:24:48.245Z,19.89
2019-05-02T07:25:48.250Z,19.89
2019-05-02T07:26:52.118Z,19.92
2019-05-02T07:27:49.214Z,19.89
2019-05-02T07:28:48.208Z,19.87
2019-05-02T07:29:52.237Z,19.90
2019-05-02T07:30:49.313Z,19.92
2019-05-02T07:31:48.909Z,19.85
2019-05-02T07:32:48.164Z,19.94
2019-05-02T07:33:48.154Z,19.92
2019-05-02T07:34:49.399Z,19.90
2019-05-02T07:35:48.136Z,19.92
2019-05-02T07:36:48.113Z,19.90
2019-05-02T07:37:48.723Z,19.87
2019-05-02T07:38:48.099Z,19.92
2019-05-02T07:39:48.080Z,19.89
2019-05-02T07:40:48.294Z,19.87
2019-05-02T07:41:48.054Z,19.98
2019-05-02T07:42:48.043Z,19.90
2019-05-02T07:43:52.126Z,19.92
2019-05-02T07:44:49.029Z,19.87
2019-05-02T07:45:48.014Z,19.94
2019-05-02T07:46:52.042Z,19.90
2019-05-02T07:47:47.991Z,19.90
2019-05-02T07:48:48.732Z,19.94
2019-05-02T07:49:48.967Z,19.92
2019-05-02T07:50:48.282Z,19.98
2019-05-02T07:51:52.290Z,19.98
2019-05-02T07:52:48.931Z,19.98
2019-05-02T07:53:48.542Z,19.92
2019-05-02T07:54:47.908Z,19.92
2019-05-02T07:55:49.318Z,19.98
2019-05-02T07:56:48.613Z,19.97
2019-05-02T07:57:47.878Z,19.98
2019-05-02T07:58:48.150Z,19.95
2019-05-02T07:59:49.750Z,20.00
2019-05-02T08:00:47.842Z,20.01
2019-05-02T08:01:49.752Z,19.98
2019-05-02T08:02:47.838Z,20.00
2019-05-02T08:03:47.809Z,19.98
2019-05-02T08:04:47.800Z,20.02
2019-05-02T08:05:47.788Z,19.97
2019-05-02T08:06:47.797Z,19.98
2019-05-02T08:07:47.765Z,20.02
2019-05-02T08:08:47.772Z,20.04
2019-05-02T08:09:47.744Z,20.02
2019-05-02T08:10:47.733Z,20.05
2019-05-02T08:11:47.737Z,20.00
2019-05-02T08:12:47.723Z,20.05
2019-05-02T08:13:49.473Z,20.04
2019-05-02T08:14:48.695Z,20.05
2019-05-02T08:15:50.951Z,20.15
2019-05-02T08:16:47.684Z,20.15
2019-05-02T08:17:53.218Z,20.12
2019-05-02T08:18:48.645Z,20.12
2019-05-02T08:19:47.645Z,20.10
2019-05-02T08:20:51.053Z,20.10
2019-05-02T08:21:48.635Z,20.13
2019-05-02T08:22:48.900Z,20.12
2019-05-02T08:23:47.588Z,20.15
2019-05-02T08:24:47.573Z,20.08
2019-05-02T08:25:47.573Z,20.12
2019-05-02T08:26:47.571Z,20.10
2019-05-02T08:27:47.561Z,20.15
2019-05-02T08:28:51.896Z,20.20
2019-05-02T08:29:48.517Z,20.13
2019-05-02T08:30:47.512Z,20.16
2019-05-02T08:31:47.513Z,20.10
2019-05-02T08:32:47.515Z,20.20
2019-05-02T08:33:47.473Z,20.10
2019-05-02T08:34:52.004Z,20.13
2019-05-02T08:35:48.457Z,20.15
2019-05-02T08:36:47.448Z,20.20
2019-05-02T08:37:47.453Z,20.16
2019-05-02T08:38:48.952Z,20.19
2019-05-02T08:39:48.404Z,20.22
2019-05-02T08:40:48.237Z,20.16
2019-05-02T08:41:51.384Z,20.20
2019-05-02T08:42:48.390Z,20.19
2019-05-02T08:43:47.361Z,20.16
2019-05-02T08:44:51.160Z,20.16
2019-05-02T08:45:47.344Z,20.22
2019-05-02T08:46:51.516Z,20.15
2019-05-02T08:47:48.333Z,20.17
2019-05-02T08:48:47.309Z,20.20
2019-05-02T08:49:49.281Z,20.25
2019-05-02T08:50:48.294Z,20.26
2019-05-02T08:51:47.272Z,20.23
2019-05-02T08:52:48.142Z,20.19
2019-05-02T08:53:47.256Z,20.26
2019-05-02T08:54:47.244Z,20.10
2019-05-02T08:55:47.235Z,20.19
2019-05-02T08:56:47.230Z,20.19
2019-05-02T08:57:47.228Z,20.15
2019-05-02T08:58:49.824Z,20.16
2019-05-02T08:59:47.187Z,20.20
2019-05-02T09:00:47.628Z,20.27
2019-05-02T09:01:49.404Z,20.15
2019-05-02T09:02:47.182Z,20.26
2019-05-02T09:03:55.009Z,20.30
2019-05-02T09:04:57.870Z,20.22
2019-05-02T09:05:48.114Z,20.25
2019-05-02T09:06:47.105Z,20.30
2019-05-02T09:07:47.141Z,20.19
2019-05-02T09:08:51.267Z,20.19
2019-05-02T09:09:48.093Z,20.30
2019-05-02T09:10:47.067Z,20.26
2019-05-02T09:12:01.012Z,20.35
2019-05-02T09:12:48.055Z,20.23
2019-05-02T09:13:47.043Z,20.33
2019-05-02T09:14:47.026Z,20.25
2019-05-02T09:15:51.343Z,20.26
2019-05-02T09:16:48.005Z,20.26
2019-05-02T09:17:52.745Z,20.25
2019-05-02T09:18:53.368Z,20.27
2019-05-02T09:19:59.552Z,20.30
2019-05-02T09:20:52.545Z,20.30
2019-05-02T09:21:47.942Z,20.23
2019-05-02T09:22:52.129Z,20.31
2019-05-02T09:23:47.930Z,20.31
2019-05-02T09:24:46.904Z,20.25
2019-05-02T09:25:46.897Z,20.30
2019-05-02T09:26:46.885Z,20.27
2019-05-02T09:27:46.871Z,20.38
2019-05-02T09:28:46.875Z,20.30
2019-05-02T09:29:46.851Z,20.33
2019-05-02T09:30:46.965Z,20.31
2019-05-02T09:31:46.827Z,20.34
2019-05-02T09:32:46.829Z,20.37
2019-05-02T09:33:47.020Z,20.35
2019-05-02T09:34:46.793Z,20.38
2019-05-02T09:35:46.783Z,20.40
2019-05-02T09:36:46.776Z,20.38
2019-05-02T09:37:46.763Z,20.40
2019-05-02T09:38:48.731Z,20.41
2019-05-02T09:39:47.741Z,20.37
2019-05-02T09:40:47.172Z,20.40
2019-05-02T09:41:46.719Z,20.38
2019-05-02T09:42:47.521Z,20.44
2019-05-02T09:43:47.708Z,20.44
2019-05-02T09:44:47.965Z,20.41
2019-05-02T09:45:47.670Z,20.40
2019-05-02T09:46:47.472Z,20.41
2019-05-02T09:48:01.343Z,20.41
2019-05-02T09:48:47.651Z,20.42
2019-05-02T09:49:48.983Z,20.44
2019-05-02T09:50:46.629Z,20.42
2019-05-02T09:51:50.498Z,20.44
2019-05-02T09:52:47.595Z,20.46
2019-05-02T09:53:46.600Z,20.38
2019-05-02T09:54:46.570Z,20.50
2019-05-02T09:55:50.300Z,20.46
2019-05-02T09:56:47.551Z,20.61
2019-05-02T09:57:46.539Z,20.44
2019-05-02T09:58:49.188Z,20.58
2019-05-02T09:59:50.582Z,20.50
2019-05-02T10:00:47.503Z,20.53
2019-05-02T10:01:46.496Z,20.46
2019-05-02T10:02:46.501Z,20.48
2019-05-02T10:03:46.492Z,20.56
2019-05-02T10:04:46.476Z,20.61
2019-05-02T10:05:46.457Z,20.48
2019-05-02T10:06:46.436Z,20.56
2019-05-02T10:07:48.570Z,20.58
2019-05-02T10:08:46.732Z,20.58
2019-05-02T10:09:46.449Z,20.60
2019-05-02T10:10:46.485Z,20.61
2019-05-02T10:11:46.391Z,20.60
2019-05-02T10:12:46.394Z,20.64
2019-05-02T10:13:46.364Z,20.68
2019-05-02T10:14:46.370Z,20.71
2019-05-02T10:15:46.336Z,20.61
2019-05-02T10:16:46.326Z,20.63
2019-05-02T10:17:46.865Z,20.63
2019-05-02T10:18:46.324Z,20.66
2019-05-02T10:19:49.184Z,20.71
2019-05-02T10:20:47.286Z,20.66
2019-05-02T10:21:47.047Z,20.71
2019-05-02T10:22:47.263Z,20.72
2019-05-02T10:23:46.248Z,20.76
2019-05-02T10:24:46.260Z,20.76
2019-05-02T10:25:47.031Z,20.72
2019-05-02T10:26:46.239Z,20.73
2019-05-02T10:27:47.595Z,20.79
2019-05-02T10:28:50.590Z,20.83
2019-05-02T10:29:46.264Z,20.83
2019-05-02T10:30:47.353Z,20.79
2019-05-02T10:31:47.163Z,20.83
2019-05-02T10:32:47.134Z,20.82
2019-05-02T10:33:47.134Z,20.85
2019-05-02T10:34:47.542Z,20.90
2019-05-02T10:35:47.114Z,20.85
2019-05-02T10:36:46.106Z,20.88
2019-05-02T10:37:46.099Z,20.93
2019-05-02T10:38:48.982Z,20.94
2019-05-02T10:39:47.309Z,20.93
2019-05-02T10:40:48.411Z,20.90
2019-05-02T10:41:47.053Z,21.01
2019-05-02T10:42:46.038Z,20.98
2019-05-02T10:43:46.875Z,21.00
2019-05-02T10:44:46.043Z,21.05
2019-05-02T10:45:47.493Z,21.05
2019-05-02T10:46:46.994Z,21.01
2019-05-02T10:47:45.984Z,21.03
2019-05-02T10:48:45.974Z,21.01
2019-05-02T10:49:45.982Z,20.98
2019-05-02T10:50:45.949Z,21.01
2019-05-02T10:51:49.592Z,21.06
2019-05-02T10:52:46.936Z,21.12
2019-05-02T10:53:47.099Z,21.09
2019-05-02T10:54:46.917Z,21.12
2019-05-02T10:55:46.047Z,21.15
2019-05-02T10:56:45.881Z,21.21
2019-05-02T10:57:45.875Z,21.08
2019-05-02T10:58:45.895Z,21.16
2019-05-02T10:59:45.873Z,21.18
2019-05-02T11:00:45.846Z,21.11
2019-05-02T11:01:45.827Z,21.16
2019-05-02T11:02:45.816Z,21.22
2019-05-02T11:03:47.466Z,21.18
2019-05-02T11:04:45.907Z,21.28
2019-05-02T11:05:45.791Z,21.24
2019-05-02T11:06:46.396Z,21.21
2019-05-02T11:07:45.762Z,21.24
2019-05-02T11:08:46.169Z,21.28
2019-05-02T11:09:45.752Z,21.34
2019-05-02T11:10:45.753Z,21.37
2019-05-02T11:11:45.724Z,21.40
2019-05-02T11:12:47.153Z,21.31
2019-05-02T11:13:45.700Z,21.34
2019-05-02T11:14:45.692Z,21.38
2019-05-02T11:15:45.708Z,21.37
2019-05-02T11:16:45.666Z,21.36
2019-05-02T11:17:45.660Z,21.36
2019-05-02T11:18:45.641Z,21.33
2019-05-02T11:19:45.631Z,21.33
2019-05-02T11:20:45.635Z,21.42
2019-05-02T11:21:55.459Z,21.36
2019-05-02T11:22:46.608Z,21.34
2019-05-02T11:23:45.759Z,21.40
2019-05-02T11:24:45.580Z,21.37
2019-05-02T11:25:45.685Z,21.33
2019-05-02T11:26:45.556Z,21.34
2019-05-02T11:27:45.571Z,21.34
2019-05-02T11:28:45.536Z,21.33
2019-05-02T11:29:45.521Z,21.43
2019-05-02T11:30:45.567Z,21.37
2019-05-02T11:31:45.506Z,21.38
2019-05-02T11:32:45.492Z,21.40
2019-05-02T11:33:45.489Z,21.46
2019-05-02T11:34:45.476Z,21.45
2019-05-02T11:35:49.010Z,21.45
2019-05-02T11:36:46.476Z,21.48
2019-05-02T11:37:45.435Z,21.48
2019-05-02T11:38:48.263Z,21.49
2019-05-02T11:39:51.368Z,21.53
2019-05-02T11:40:46.405Z,21.48
2019-05-02T11:41:45.406Z,21.52
2019-05-02T11:42:45.381Z,21.53
2019-05-02T11:43:45.375Z,21.55
2019-05-02T11:44:45.358Z,21.61
2019-05-02T11:45:45.365Z,21.56
2019-05-02T11:46:46.912Z,21.63
2019-05-02T11:47:45.409Z,21.64
2019-05-02T11:48:55.404Z,21.63
2019-05-02T11:49:46.881Z,21.63
2019-05-02T11:50:45.294Z,21.67
2019-05-02T11:51:47.058Z,21.66
2019-05-02T11:52:46.271Z,21.77
2019-05-02T11:53:45.262Z,21.77
2019-05-02T11:54:48.509Z,21.73
2019-05-02T11:55:45.241Z,21.74
2019-05-02T11:56:48.747Z,21.75
2019-05-02T11:57:46.227Z,21.81
2019-05-02T11:58:48.603Z,21.86
2019-05-02T11:59:46.196Z,21.83
2019-05-02T12:00:49.436Z,21.89
2019-05-02T12:01:56.895Z,21.91
2019-05-02T12:02:49.176Z,21.96
2019-05-02T12:03:45.171Z,21.98
2019-05-02T12:04:47.319Z,22.01
2019-05-02T12:05:46.132Z,22.04
2019-05-02T12:06:45.136Z,22.02
2019-05-02T12:07:45.119Z,21.98
2019-05-02T12:08:49.339Z,22.06
2019-05-02T12:09:55.136Z,22.14
2019-05-02T12:10:46.078Z,22.17
2019-05-02T12:11:47.396Z,22.24
2019-05-02T12:12:46.055Z,22.21
2019-05-02T12:13:47.356Z,22.26
2019-05-02T12:14:46.038Z,22.33
2019-05-02T12:15:45.056Z,22.35
2019-05-02T12:16:45.028Z,22.35
2019-05-02T12:17:45.000Z,22.33
2019-05-02T12:18:44.990Z,22.42
2019-05-02T12:19:44.977Z,22.39
2019-05-02T12:20:44.973Z,22.46
2019-05-02T12:21:44.982Z,22.51
2019-05-02T12:22:44.946Z,22.56
2019-05-02T12:23:44.935Z,22.61
2019-05-02T12:24:45.448Z,22.63
2019-05-02T12:25:44.912Z,22.63
2019-05-02T12:26:46.565Z,22.72
2019-05-02T12:27:44.914Z,22.81
2019-05-02T12:28:44.878Z,22.78
2019-05-02T12:29:44.864Z,22.86
2019-05-02T12:30:44.854Z,22.89
2019-05-02T12:31:47.225Z,22.99
2019-05-02T12:32:45.851Z,22.91
2019-05-02T12:33:44.841Z,23.04
2019-05-02T12:34:44.815Z,23.01
2019-05-02T12:35:44.801Z,23.00
2019-05-02T12:36:44.789Z,23.06
2019-05-02T12:37:47.099Z,23.07
2019-05-02T12:38:45.766Z,23.12
2019-05-02T12:39:44.774Z,23.15
2019-05-02T12:40:44.747Z,23.22
2019-05-02T12:41:44.956Z,23.21
2019-05-02T12:42:44.740Z,23.26
2019-05-02T12:43:44.711Z,23.25
2019-05-02T12:44:44.705Z,23.22
2019-05-02T12:45:44.712Z,23.19
2019-05-02T12:46:44.678Z,23.22
2019-05-02T12:47:44.680Z,23.22
2019-05-02T12:48:44.670Z,23.25
2019-05-02T12:49:44.652Z,23.25
2019-05-02T12:50:44.631Z,23.22
2019-05-02T12:51:44.632Z,23.23
2019-05-02T12:52:44.624Z,23.18